createdAt,value
2018-01-10T00:01:04.758Z,5.80
2018-01-10T00:03:32.484Z,5.80
2018-01-10T00:05:59.918Z,5.80
2018-01-10T00:08:28.177Z,5.80
2018-01-10T00:10:56.380Z,5.80
2018-01-10T00:13:23.813Z,5.80
2018-01-10T00:15:52.048Z,5.80
2018-01-10T00:18:19.491Z,5.80
2018-01-10T00:20:46.924Z,5.80
2018-01-10T00:23:14.829Z,5.80
2018-01-10T00:25:42.314Z,5.80
2018-01-10T00:28:09.705Z,5.80
2018-01-10T00:30:37.164Z,5.80
2018-01-10T00:33:04.624Z,5.80
2018-01-10T00:35:32.199Z,5.80
2018-01-10T00:37:59.644Z,5.80
2018-01-10T00:40:27.071Z,5.80
2018-01-10T00:42:55.392Z,5.70
2018-01-10T00:45:22.828Z,5.70
2018-01-10T00:47:50.283Z,5.80
2018-01-10T00:50:17.721Z,5.80
2018-01-10T00:52:45.947Z,5.80
2018-01-10T00:55:13.412Z,5.80
2018-01-10T00:57:40.860Z,5.80
2018-01-10T01:00:08.393Z,5.80
2018-01-10T01:02:35.890Z,5.80
2018-01-10T01:05:03.337Z,5.80
2018-01-10T01:07:30.781Z,5.80
2018-01-10T01:09:58.253Z,5.80
2018-01-10T01:12:25.696Z,5.80
2018-01-10T01:14:53.185Z,5.80
2018-01-10T01:17:20.696Z,5.90
2018-01-10T01:19:48.128Z,5.90
2018-01-10T01:22:17.411Z,5.90
2018-01-10T01:24:44.848Z,5.90
2018-01-10T01:27:12.396Z,5.90
2018-01-10T01:29:39.868Z,5.90
2018-01-10T01:32:07.312Z,5.90
2018-01-10T01:34:34.884Z,5.90
2018-01-10T01:37:02.320Z,5.90
2018-01-10T01:39:29.771Z,5.90
2018-01-10T01:41:57.356Z,5.90
2018-01-10T01:44:24.937Z,5.90
2018-01-10T01:46:52.424Z,6.00
2018-01-10T01:49:20.633Z,5.90
2018-01-10T01:51:48.073Z,5.90
2018-01-10T01:54:15.545Z,5.90
2018-01-10T01:56:42.974Z,6.00
2018-01-10T01:59:11.253Z,5.90
2018-01-10T02:01:39.457Z,6.00
2018-01-10T02:04:06.949Z,6.00
2018-01-10T02:06:34.383Z,6.00
2018-01-10T02:09:02.812Z,6.00
2018-01-10T02:11:31.020Z,6.00
2018-01-10T02:13:58.483Z,6.00
2018-01-10T02:16:25.925Z,6.00
2018-01-10T02:18:53.545Z,6.00
2018-01-10T02:21:20.979Z,6.00
2018-01-10T02:23:48.442Z,6.00
2018-01-10T02:26:15.885Z,6.00
2018-01-10T02:28:43.356Z,6.10
2018-01-10T02:31:10.788Z,6.10
2018-01-10T02:33:38.219Z,6.00
2018-01-10T02:36:05.724Z,6.10
2018-01-10T02:38:34.149Z,6.10
2018-01-10T02:41:02.352Z,6.10
2018-01-10T02:43:29.838Z,6.10
2018-01-10T02:45:57.272Z,6.10
2018-01-10T02:48:24.699Z,6.10
2018-01-10T02:50:52.954Z,6.10
2018-01-10T02:53:20.386Z,6.10
2018-01-10T02:55:47.829Z,6.10
2018-01-10T02:58:15.422Z,6.10
2018-01-10T03:00:42.908Z,6.10
2018-01-10T03:03:11.116Z,6.20
2018-01-10T03:05:38.547Z,6.10
2018-01-10T03:08:06.008Z,6.20
2018-01-10T03:10:34.348Z,6.20
2018-01-10T03:13:01.810Z,6.20
2018-01-10T03:15:29.244Z,6.20
2018-01-10T03:17:56.747Z,6.20
2018-01-10T03:20:25.064Z,6.20
2018-01-10T03:22:56.132Z,6.20
2018-01-10T03:25:23.596Z,6.20
2018-01-10T03:27:51.033Z,6.20
2018-01-10T03:30:18.500Z,6.20
2018-01-10T03:32:45.972Z,6.20
2018-01-10T03:35:13.408Z,6.20
2018-01-10T03:37:40.844Z,6.20
2018-01-10T03:40:08.404Z,6.20
2018-01-10T03:42:35.844Z,6.20
2018-01-10T03:45:03.504Z,6.20
2018-01-10T03:47:30.948Z,6.20
2018-01-10T03:49:59.176Z,6.20
2018-01-10T03:52:26.616Z,6.20
2018-01-10T03:54:54.090Z,6.20
2018-01-10T03:57:21.521Z,6.20
2018-01-10T03:59:49.056Z,6.20
2018-01-10T04:02:17.262Z,6.20
2018-01-10T04:04:44.701Z,6.20
2018-01-10T04:07:12.194Z,6.20
2018-01-10T04:09:39.640Z,6.20
2018-01-10T04:12:08.055Z,6.20
2018-01-10T04:14:35.637Z,6.20
2018-01-10T04:17:03.064Z,6.20
2018-01-10T04:19:30.512Z,6.20
2018-01-10T04:21:58.469Z,6.20
2018-01-10T04:24:25.904Z,6.20
2018-01-10T04:26:53.390Z,6.20
2018-01-10T04:29:20.873Z,6.20
2018-01-10T04:31:48.276Z,6.20
2018-01-10T04:34:15.744Z,6.20
2018-01-10T04:36:43.181Z,6.20
2018-01-10T04:39:10.884Z,6.20
2018-01-10T04:41:38.320Z,6.30
2018-01-10T04:44:05.785Z,6.30
2018-01-10T04:46:33.351Z,6.30
2018-01-10T04:49:00.832Z,6.30
2018-01-10T04:51:28.280Z,6.30
2018-01-10T04:53:55.717Z,6.30
2018-01-10T04:56:23.495Z,6.30
2018-01-10T04:58:50.940Z,6.20
2018-01-10T05:01:18.368Z,6.20
2018-01-10T05:03:50.788Z,6.20
2018-01-10T05:06:18.243Z,6.20
2018-01-10T05:08:45.680Z,6.20
2018-01-10T05:11:13.141Z,6.20
2018-01-10T05:13:40.576Z,6.20
2018-01-10T05:16:13.097Z,6.20
2018-01-10T05:18:40.540Z,6.30
2018-01-10T05:21:08.024Z,6.20
2018-01-10T05:23:35.460Z,6.30
2018-01-10T05:26:02.901Z,6.30
2018-01-10T05:28:30.531Z,6.30
2018-01-10T05:30:58.749Z,6.30
2018-01-10T05:33:27.148Z,6.30
2018-01-10T05:35:55.107Z,6.30
2018-01-10T05:38:22.544Z,6.30
2018-01-10T05:40:49.993Z,6.30
2018-01-10T05:43:17.483Z,6.30
2018-01-10T05:45:44.924Z,6.30
2018-01-10T05:48:12.356Z,6.30
2018-01-10T05:50:40.047Z,6.30
2018-01-10T05:53:07.486Z,6.30
2018-01-10T05:55:34.911Z,6.30
2018-01-10T05:58:04.113Z,6.30
2018-01-10T06:00:32.368Z,6.30
2018-01-10T06:03:00.509Z,6.30
2018-01-10T06:05:27.944Z,6.30
2018-01-10T06:07:55.485Z,6.30
2018-01-10T06:10:23.730Z,6.30
2018-01-10T06:12:51.148Z,6.30
2018-01-10T06:15:20.485Z,6.30
2018-01-10T06:17:49.469Z,6.30
2018-01-10T06:20:16.937Z,6.30
2018-01-10T06:22:44.364Z,6.30
2018-01-10T06:25:11.868Z,6.30
2018-01-10T06:27:39.301Z,6.40
2018-01-10T06:30:06.756Z,6.30
2018-01-10T06:32:34.187Z,6.40
2018-01-10T06:35:01.652Z,6.40
2018-01-10T06:37:29.081Z,6.30
2018-01-10T06:39:59.046Z,6.40
2018-01-10T06:42:29.478Z,6.40
2018-01-10T06:44:56.907Z,6.40
2018-01-10T06:47:24.487Z,6.40
2018-01-10T06:49:51.920Z,6.40
2018-01-10T06:52:19.352Z,6.40
2018-01-10T06:54:46.816Z,6.40
2018-01-10T06:57:15.511Z,6.40
2018-01-10T06:59:42.936Z,6.40
2018-01-10T07:02:11.143Z,6.40
2018-01-10T07:04:40.061Z,6.40
2018-01-10T07:07:07.557Z,6.40
2018-01-10T07:09:35.756Z,6.40
2018-01-10T07:12:03.184Z,6.40
2018-01-10T07:14:30.635Z,6.40
2018-01-10T07:16:58.060Z,6.40
2018-01-10T07:19:25.607Z,6.40
2018-01-10T07:21:53.040Z,6.40
2018-01-10T07:24:21.717Z,6.40
2018-01-10T07:26:49.908Z,6.40
2018-01-10T07:29:17.364Z,6.40
2018-01-10T07:31:44.800Z,6.40
2018-01-10T07:34:13.027Z,6.40
2018-01-10T07:36:40.465Z,6.40
2018-01-10T07:39:08.054Z,6.40
2018-01-10T07:41:35.509Z,6.40
2018-01-10T07:44:02.950Z,6.40
2018-01-10T07:46:36.053Z,6.40
2018-01-10T07:49:04.505Z,6.40
2018-01-10T07:51:31.940Z,6.40
2018-01-10T07:54:00.132Z,6.40
2018-01-10T07:56:27.639Z,6.40
2018-01-10T07:58:55.060Z,6.40
2018-01-10T08:01:23.180Z,6.40
2018-01-10T08:03:50.689Z,6.40
2018-01-10T08:06:18.139Z,6.40
2018-01-10T08:08:45.582Z,6.40
2018-01-10T08:11:17.653Z,6.40
2018-01-10T08:13:45.072Z,6.40
2018-01-10T08:16:12.808Z,6.40
2018-01-10T08:18:40.300Z,6.40
2018-01-10T08:21:07.743Z,6.40
2018-01-10T08:23:35.521Z,6.40
2018-01-10T08:26:11.992Z,6.40
2018-01-10T08:28:39.928Z,6.50
2018-01-10T08:31:07.357Z,6.40
2018-01-10T08:33:38.440Z,6.40
2018-01-10T08:36:05.872Z,6.40
2018-01-10T08:38:35.597Z,6.40
2018-01-10T08:41:03.026Z,6.40
2018-01-10T08:43:30.453Z,6.40
2018-01-10T08:45:59.940Z,6.60
2018-01-10T08:48:27.622Z,6.50
2018-01-10T08:50:55.820Z,6.70
2018-01-10T08:53:23.295Z,6.70
2018-01-10T08:55:50.741Z,6.70
2018-01-10T08:58:18.168Z,6.60
2018-01-10T09:00:45.731Z,6.70
2018-01-10T09:03:13.966Z,6.60
2018-01-10T09:05:41.385Z,6.60
2018-01-10T09:08:19.620Z,6.70
2018-01-10T09:10:47.041Z,6.70
2018-01-10T09:13:15.277Z,6.70
2018-01-10T09:15:42.844Z,6.70
2018-01-10T09:18:10.277Z,6.80
2018-01-10T09:20:37.720Z,6.80
2018-01-10T09:23:05.278Z,6.80
2018-01-10T09:25:32.696Z,6.90
2018-01-10T09:28:01.713Z,7.10
2018-01-10T09:30:29.136Z,7.10
2018-01-10T09:32:56.804Z,7.10
2018-01-10T09:35:25.976Z,7.20
2018-01-10T09:37:53.435Z,7.20
2018-01-10T09:40:20.876Z,7.20
2018-01-10T09:42:48.337Z,7.20
2018-01-10T09:45:15.775Z,7.20
2018-01-10T09:47:43.233Z,7.20
2018-01-10T09:50:10.849Z,7.20
2018-01-10T09:52:43.497Z,7.20
2018-01-10T09:55:10.930Z,7.20
2018-01-10T09:57:38.353Z,7.20
2018-01-10T10:00:06.580Z,7.30
2018-01-10T10:02:34.029Z,7.30
2018-01-10T10:05:04.481Z,7.30
2018-01-10T10:07:31.949Z,7.40
2018-01-10T10:09:59.372Z,7.40
2018-01-10T10:12:26.984Z,7.40
2018-01-10T10:14:55.194Z,7.40
2018-01-10T10:17:29.034Z,7.40
2018-01-10T10:19:56.454Z,7.40
2018-01-10T10:22:23.908Z,7.40
2018-01-10T10:24:56.227Z,7.40
2018-01-10T10:27:23.756Z,7.40
2018-01-10T10:29:51.192Z,7.40
2018-01-10T10:32:18.632Z,7.50
2018-01-10T10:34:46.892Z,7.50
2018-01-10T10:37:14.378Z,7.50
2018-01-10T10:39:41.825Z,7.50
2018-01-10T10:42:10.068Z,7.60
2018-01-10T10:44:38.456Z,7.60
2018-01-10T10:47:06.108Z,7.60
2018-01-10T10:49:33.548Z,7.60
2018-01-10T10:52:00.984Z,7.60
2018-01-10T10:54:28.442Z,7.60
2018-01-10T10:56:55.900Z,7.70
2018-01-10T10:59:23.332Z,7.70
2018-01-10T11:01:50.951Z,7.70
2018-01-10T11:04:18.532Z,7.70
2018-01-10T11:06:45.963Z,7.70
2018-01-10T11:09:14.377Z,7.70
2018-01-10T11:11:41.804Z,7.70
2018-01-10T11:14:09.299Z,7.70
2018-01-10T11:16:37.505Z,7.70
2018-01-10T11:19:05.017Z,7.70
2018-01-10T11:21:33.124Z,7.70
2018-01-10T11:24:00.556Z,7.70
2018-01-10T11:26:28.748Z,7.60
2018-01-10T11:28:56.213Z,7.60
2018-01-10T11:31:23.649Z,7.60
2018-01-10T11:33:51.860Z,7.60
2018-01-10T11:36:19.288Z,7.60
2018-01-10T11:38:48.565Z,7.70
2018-01-10T11:41:16.004Z,7.60
2018-01-10T11:43:46.005Z,7.70
2018-01-10T11:46:13.467Z,7.70
2018-01-10T11:48:40.940Z,7.70
2018-01-10T11:51:08.377Z,7.80
2018-01-10T11:53:35.828Z,7.80
2018-01-10T11:56:03.304Z,7.80
2018-01-10T11:58:30.736Z,7.80
2018-01-10T12:00:58.160Z,7.80
2018-01-10T12:03:26.444Z,7.90
2018-01-10T12:05:53.973Z,7.90
2018-01-10T12:08:21.425Z,7.90
2018-01-10T12:10:48.868Z,7.90
2018-01-10T12:13:16.752Z,7.90
2018-01-10T12:15:44.184Z,7.90
2018-01-10T12:18:22.091Z,7.90
2018-01-10T12:20:49.526Z,8.00
2018-01-10T12:23:17.411Z,8.00
2018-01-10T12:25:44.845Z,8.00
2018-01-10T12:28:12.360Z,8.00
2018-01-10T12:30:39.788Z,8.00
2018-01-10T12:33:07.224Z,8.00
2018-01-10T12:35:38.388Z,8.00
2018-01-10T12:38:05.880Z,8.00
2018-01-10T12:40:33.308Z,8.00
2018-01-10T12:43:00.773Z,8.00
2018-01-10T12:45:28.236Z,8.00
2018-01-10T12:47:55.672Z,8.00
2018-01-10T12:50:23.135Z,8.10
2018-01-10T12:52:50.616Z,8.10
2018-01-10T12:55:18.045Z,8.10
2018-01-10T12:57:50.463Z,8.10
2018-01-10T13:00:18.647Z,8.10
2018-01-10T13:02:46.871Z,8.10
2018-01-10T13:05:14.336Z,8.10
2018-01-10T13:07:41.768Z,8.10
2018-01-10T13:10:09.199Z,8.10
2018-01-10T13:12:36.744Z,8.10
2018-01-10T13:15:04.960Z,8.20
2018-01-10T13:17:32.468Z,8.10
2018-01-10T13:19:59.897Z,8.20
2018-01-10T13:22:27.334Z,8.10
2018-01-10T13:24:54.828Z,8.10
2018-01-10T13:27:22.264Z,8.10
2018-01-10T13:29:49.688Z,8.10
2018-01-10T13:32:17.188Z,8.10
2018-01-10T13:34:44.617Z,8.10
2018-01-10T13:37:12.120Z,8.00
2018-01-10T13:39:39.560Z,8.10
2018-01-10T13:42:06.992Z,8.10
2018-01-10T13:44:34.461Z,8.10
2018-01-10T13:47:02.097Z,8.00
2018-01-10T13:49:29.523Z,8.10
2018-01-10T13:51:57.717Z,8.00
2018-01-10T13:54:25.345Z,8.00
2018-01-10T13:56:52.777Z,8.00
2018-01-10T13:59:20.204Z,8.00
2018-01-10T14:01:47.676Z,8.00
2018-01-10T14:04:15.136Z,8.10
2018-01-10T14:06:42.568Z,8.10
2018-01-10T14:09:10.196Z,8.10
2018-01-10T14:11:37.624Z,8.10
2018-01-10T14:14:05.060Z,8.10
2018-01-10T14:16:32.514Z,8.10
2018-01-10T14:19:00.113Z,8.20
2018-01-10T14:21:27.557Z,8.20
2018-01-10T14:23:55.017Z,8.20
2018-01-10T14:26:22.456Z,8.20
2018-01-10T14:28:50.000Z,8.30
2018-01-10T14:31:17.488Z,8.20
2018-01-10T14:33:46.913Z,8.20
2018-01-10T14:36:14.366Z,8.20
2018-01-10T14:38:44.373Z,8.20
2018-01-10T14:41:11.841Z,8.20
2018-01-10T14:43:39.429Z,8.20
2018-01-10T14:46:07.801Z,8.10
2018-01-10T14:48:35.241Z,8.10
2018-01-10T14:51:02.700Z,8.10
2018-01-10T14:53:32.600Z,8.10
2018-01-10T14:56:00.584Z,8.10
2018-01-10T14:58:28.019Z,8.00
2018-01-10T15:00:55.452Z,8.00
2018-01-10T15:03:22.919Z,8.00
2018-01-10T15:05:50.371Z,8.00
2018-01-10T15:08:17.828Z,8.00
2018-01-10T15:10:45.265Z,8.00
2018-01-10T15:13:13.541Z,8.00
2018-01-10T15:15:41.764Z,8.00
2018-01-10T15:18:09.362Z,8.00
2018-01-10T15:20:37.560Z,8.00
2018-01-10T15:23:05.025Z,7.90
2018-01-10T15:25:33.451Z,8.00
2018-01-10T15:28:00.904Z,7.90
2018-01-10T15:30:28.335Z,7.90
2018-01-10T15:32:56.117Z,7.90
2018-01-10T15:35:23.553Z,7.90
2018-01-10T15:37:51.000Z,7.90
2018-01-10T15:40:18.468Z,7.90
2018-01-10T15:42:45.929Z,7.80
2018-01-10T15:45:13.341Z,7.80
2018-01-10T15:47:41.728Z,7.70
2018-01-10T15:50:11.920Z,7.70
2018-01-10T15:52:39.343Z,7.70
2018-01-10T15:55:07.035Z,7.70
2018-01-10T15:57:34.464Z,7.70
2018-01-10T16:00:01.900Z,7.60
2018-01-10T16:02:29.709Z,7.60
2018-01-10T16:04:57.141Z,7.60
2018-01-10T16:07:24.572Z,7.60
2018-01-10T16:09:52.971Z,7.60
2018-01-10T16:12:20.400Z,7.60
2018-01-10T16:14:48.600Z,7.60
2018-01-10T16:17:17.086Z,7.60
2018-01-10T16:19:44.516Z,7.60
2018-01-10T16:22:12.708Z,7.50
2018-01-10T16:24:40.309Z,7.50
2018-01-10T16:27:07.746Z,7.50
2018-01-10T16:29:35.244Z,7.50
2018-01-10T16:32:02.668Z,7.50
2018-01-10T16:34:30.933Z,7.50
2018-01-10T16:36:58.368Z,7.50
2018-01-10T16:39:25.831Z,7.50
2018-01-10T16:41:53.256Z,7.50
2018-01-10T16:44:20.709Z,7.50
2018-01-10T16:46:48.139Z,7.50
2018-01-10T16:49:16.104Z,7.50
2018-01-10T16:51:43.602Z,7.50
2018-01-10T16:54:10.965Z,7.50
2018-01-10T16:56:39.184Z,7.40
2018-01-10T16:59:15.468Z,7.40
2018-01-10T17:01:42.912Z,7.50
2018-01-10T17:04:11.319Z,7.50
2018-01-10T17:06:38.852Z,7.50
2018-01-10T17:09:07.293Z,7.50
2018-01-10T17:11:35.508Z,7.50
2018-01-10T17:14:02.949Z,7.40
2018-01-10T17:16:31.160Z,7.40
2018-01-10T17:18:58.593Z,7.40
2018-01-10T17:21:30.073Z,7.40
2018-01-10T17:23:58.453Z,7.40
2018-01-10T17:26:27.989Z,7.40
2018-01-10T17:28:57.156Z,7.40
2018-01-10T17:31:24.596Z,7.40
2018-01-10T17:33:52.180Z,7.40
2018-01-10T17:36:19.608Z,7.40
2018-01-10T17:38:47.048Z,7.40
2018-01-10T17:41:14.500Z,7.40
2018-01-10T17:43:41.936Z,7.30
2018-01-10T17:46:11.196Z,7.30
2018-01-10T17:48:38.628Z,7.30
2018-01-10T17:51:07.621Z,7.30
2018-01-10T17:53:35.072Z,7.30
2018-01-10T17:56:02.500Z,7.30
2018-01-10T17:58:31.676Z,7.20
2018-01-10T18:00:59.108Z,7.20
2018-01-10T18:03:26.673Z,7.20
2018-01-10T18:05:54.098Z,7.20
2018-01-10T18:08:21.515Z,7.20
2018-01-10T18:10:49.737Z,7.10
2018-01-10T18:13:17.217Z,7.10
2018-01-10T18:15:44.645Z,7.10
2018-01-10T18:18:12.072Z,7.10
2018-01-10T18:20:40.597Z,7.00
2018-01-10T18:23:08.042Z,7.00
2018-01-10T18:25:35.500Z,7.00
2018-01-10T18:28:02.925Z,7.00
2018-01-10T18:30:31.148Z,6.90
2018-01-10T18:32:58.577Z,6.90
2018-01-10T18:35:26.028Z,6.90
2018-01-10T18:37:53.512Z,6.80
2018-01-10T18:40:21.121Z,6.80
2018-01-10T18:42:49.315Z,6.70
2018-01-10T18:45:16.744Z,6.70
2018-01-10T18:47:44.205Z,6.70
2018-01-10T18:50:12.629Z,6.70
2018-01-10T18:52:40.831Z,6.70
2018-01-10T18:55:08.323Z,6.70
2018-01-10T18:57:35.757Z,6.70
2018-01-10T19:00:03.195Z,6.70
2018-01-10T19:02:30.696Z,6.70
2018-01-10T19:04:58.930Z,6.70
2018-01-10T19:07:26.372Z,6.70
2018-01-10T19:09:53.830Z,6.70
2018-01-10T19:12:21.287Z,6.70
2018-01-10T19:14:48.749Z,6.70
2018-01-10T19:17:16.175Z,6.70
2018-01-10T19:19:44.593Z,6.70
2018-01-10T19:22:12.040Z,6.70
2018-01-10T19:24:39.473Z,6.70
2018-01-10T19:27:07.008Z,6.70
2018-01-10T19:29:34.464Z,6.70
2018-01-10T19:32:01.906Z,6.70
2018-01-10T19:34:32.439Z,6.70
2018-01-10T19:36:59.972Z,6.70
2018-01-10T19:39:27.587Z,6.70
2018-01-10T19:41:55.802Z,6.60
2018-01-10T19:44:23.237Z,6.60
2018-01-10T19:47:01.816Z,6.60
2018-01-10T19:49:29.248Z,6.60
2018-01-10T19:51:56.687Z,6.60
2018-01-10T19:54:24.183Z,6.60
2018-01-10T19:56:51.617Z,6.60
2018-01-10T19:59:19.056Z,6.60
2018-01-10T20:01:50.325Z,6.60
2018-01-10T20:04:17.765Z,6.60
2018-01-10T20:06:48.234Z,6.60
2018-01-10T20:09:15.728Z,6.60
2018-01-10T20:11:43.159Z,6.60
2018-01-10T20:14:10.583Z,6.60
2018-01-10T20:16:38.435Z,6.70
2018-01-10T20:19:05.865Z,6.70
2018-01-10T20:21:33.301Z,6.70
2018-01-10T20:24:01.628Z,6.70
2018-01-10T20:26:29.065Z,6.70
2018-01-10T20:28:56.496Z,6.70
2018-01-10T20:31:24.916Z,6.70
2018-01-10T20:34:01.408Z,6.70
2018-01-10T20:36:28.853Z,6.70
2018-01-10T20:38:56.291Z,6.70
2018-01-10T20:41:23.752Z,6.70
2018-01-10T20:43:51.248Z,6.70
2018-01-10T20:46:18.681Z,6.70
2018-01-10T20:48:46.909Z,6.70
2018-01-10T20:51:15.239Z,6.70
2018-01-10T20:53:42.675Z,6.70
2018-01-10T20:56:10.107Z,6.80
2018-01-10T20:58:40.336Z,6.70
2018-01-10T21:01:08.541Z,6.80
2018-01-10T21:03:35.968Z,6.70
2018-01-10T21:06:03.881Z,6.80
2018-01-10T21:08:31.308Z,6.70
2018-01-10T21:10:58.744Z,6.70
2018-01-10T21:13:44.171Z,6.70
2018-01-10T21:16:11.608Z,6.70
2018-01-10T21:18:39.156Z,6.70
2018-01-10T21:21:06.585Z,6.70
2018-01-10T21:23:35.232Z,6.70
2018-01-10T21:26:15.444Z,6.70
2018-01-10T21:28:42.898Z,6.70
2018-01-10T21:31:10.378Z,6.70
2018-01-10T21:33:38.579Z,6.70
2018-01-10T21:36:19.664Z,6.70
2018-01-10T21:38:47.112Z,6.70
2018-01-10T21:41:14.559Z,6.70
2018-01-10T21:43:42.109Z,6.70
2018-01-10T21:46:09.532Z,6.70
2018-01-10T21:48:37.809Z,6.70
2018-01-10T21:51:08.524Z,6.70
2018-01-10T21:53:35.963Z,6.70
2018-01-10T21:56:03.452Z,6.70
2018-01-10T21:58:31.656Z,6.70
2018-01-10T22:00:59.085Z,6.70
2018-01-10T22:03:27.451Z,6.70
2018-01-10T22:05:54.886Z,6.70
2018-01-10T22:08:22.322Z,6.70
2018-01-10T22:10:49.785Z,6.70
2018-01-10T22:13:18.222Z,6.70
2018-01-10T22:15:46.420Z,6.70
2018-01-10T22:18:13.856Z,6.70
2018-01-10T22:20:42.701Z,6.70
2018-01-10T22:23:10.145Z,6.70
2018-01-10T22:25:37.584Z,6.70
2018-01-10T22:28:05.069Z,6.70
2018-01-10T22:30:32.528Z,6.70
2018-01-10T22:32:59.972Z,6.70
2018-01-10T22:35:27.440Z,6.60
2018-01-10T22:37:54.880Z,6.70
2018-01-10T22:40:22.516Z,6.70
2018-01-10T22:42:50.721Z,6.60
2018-01-10T22:45:18.156Z,6.70
2018-01-10T22:47:45.940Z,6.70
2018-01-10T22:50:13.373Z,6.70
2018-01-10T22:52:46.960Z,6.70
2018-01-10T22:55:15.263Z,6.70
2018-01-10T22:57:42.696Z,6.60
2018-01-10T23:00:10.891Z,6.70
2018-01-10T23:02:38.353Z,6.60
2018-01-10T23:05:05.796Z,6.70
2018-01-10T23:07:34.022Z,6.70
2018-01-10T23:10:01.452Z,6.60
2018-01-10T23:12:28.964Z,6.70
2018-01-10T23:14:56.400Z,6.70
2018-01-10T23:17:23.888Z,6.70
2018-01-10T23:19:52.103Z,6.70
2018-01-10T23:22:19.549Z,6.70
2018-01-10T23:24:47.164Z,6.70
2018-01-10T23:27:15.294Z,6.70
2018-01-10T23:29:43.661Z,6.70
2018-01-10T23:32:12.093Z,6.70
2018-01-10T23:34:39.570Z,6.70
2018-01-10T23:37:07.788Z,6.70
2018-01-10T23:39:35.232Z,6.70
2018-01-10T23:42:02.687Z,6.70
2018-01-10T23:44:30.127Z,6.70
2018-01-10T23:46:58.333Z,6.70
2018-01-10T23:49:27.404Z,6.70
2018-01-10T23:51:55.604Z,6.70
2018-01-10T23:54:23.384Z,6.60
2018-01-10T23:56:50.816Z,6.70
2018-01-10T23:59:18.252Z,6.60
